sensor_id;sensor_type;location;lat;lon;timestamp;temperature;humidity
70928;SHT31;58587;53.034;18.576;2022-12-05T15:09:53;1.65;92.88
70928;SHT31;58587;53.034;18.576;2022-12-05T15:12:46;1.62;93.06
70928;SHT31;58587;53.034;18.576;2022-12-05T15:18:02;1.62;93.10
70928;SHT31;58587;53.034;18.576;2022-12-05T15:20:55;1.61;93.27
70928;SHT31;58587;53.034;18.576;2022-12-05T15:23:38;1.64;93.22
70928;SHT31;58587;53.034;18.576;2022-12-05T15:26:11;1.64;93.34
70928;SHT31;58587;53.034;18.576;2022-12-05T15:28:40;1.64;93.43
70928;SHT31;58587;53.034;18.576;2022-12-05T15:31:05;1.65;93.55
70928;SHT31;58587;53.034;18.576;2022-12-05T15:33:32;1.67;93.55
70928;SHT31;58587;53.034;18.576;2022-12-05T15:35:58;1.69;93.54
70928;SHT31;58587;53.034;18.576;2022-12-05T15:38:28;1.68;93.74
70928;SHT31;58587;53.034;18.576;2022-12-05T15:40:55;1.68;93.79
70928;SHT31;58587;53.034;18.576;2022-12-05T15:43:30;1.68;93.80
70928;SHT31;58587;53.034;18.576;2022-12-05T15:46:18;1.69;93.82
70928;SHT31;58587;53.034;18.576;2022-12-05T15:48:51;1.61;94.06
70928;SHT31;58587;53.034;18.576;2022-12-05T15:51:17;1.67;94.05
70928;SHT31;58587;53.034;18.576;2022-12-05T15:53:48;1.67;94.11
70928;SHT31;58587;53.034;18.576;2022-12-05T15:56:34;1.68;94.12
70928;SHT31;58587;53.034;18.576;2022-12-05T15:59:08;1.67;94.18
70928;SHT31;58587;53.034;18.576;2022-12-05T16:01:43;1.71;94.16
70928;SHT31;58587;53.034;18.576;2022-12-05T16:04:15;1.69;94.12
70928;SHT31;58587;53.034;18.576;2022-12-05T16:06:53;1.69;94.17
70928;SHT31;58587;53.034;18.576;2022-12-05T16:09:22;1.69;94.12
70928;SHT31;58587;53.034;18.576;2022-12-05T16:11:56;1.74;93.99
70928;SHT31;58587;53.034;18.576;2022-12-05T16:14:24;1.69;94.27
70928;SHT31;58587;53.034;18.576;2022-12-05T16:16:56;1.72;94.20
70928;SHT31;58587;53.034;18.576;2022-12-05T16:19:24;1.71;94.23
70928;SHT31;58587;53.034;18.576;2022-12-05T16:24:30;1.69;94.52
70928;SHT31;58587;53.034;18.576;2022-12-05T16:27:00;1.69;94.52
70928;SHT31;58587;53.034;18.576;2022-12-05T16:29:29;1.71;94.54
70928;SHT31;58587;53.034;18.576;2022-12-05T16:31:59;1.72;94.41
70928;SHT31;58587;53.034;18.576;2022-12-05T16:34:30;1.72;94.45
70928;SHT31;58587;53.034;18.576;2022-12-05T16:37:16;1.69;94.83
70928;SHT31;58587;53.034;18.576;2022-12-05T16:39:43;1.69;94.64
70928;SHT31;58587;53.034;18.576;2022-12-05T16:42:30;1.69;94.77
70928;SHT31;58587;53.034;18.576;2022-12-05T16:48:18;1.72;94.57
70928;SHT31;58587;53.034;18.576;2022-12-05T16:51:21;1.77;94.58
70928;SHT31;58587;53.034;18.576;2022-12-05T16:53:54;1.74;94.71
70928;SHT31;58587;53.034;18.576;2022-12-05T16:56:27;1.71;94.72
70928;SHT31;58587;53.034;18.576;2022-12-05T16:59:13;1.71;94.84
70928;SHT31;58587;53.034;18.576;2022-12-05T17:01:44;1.74;94.77
70928;SHT31;58587;53.034;18.576;2022-12-05T17:04:10;1.77;94.65
70928;SHT31;58587;53.034;18.576;2022-12-05T17:06:36;1.75;94.75
70928;SHT31;58587;53.034;18.576;2022-12-05T17:09:03;1.75;94.80
70928;SHT31;58587;53.034;18.576;2022-12-05T17:11:50;1.77;94.84
70928;SHT31;58587;53.034;18.576;2022-12-05T17:14:23;1.78;94.70
70928;SHT31;58587;53.034;18.576;2022-12-05T17:16:48;1.78;94.70
70928;SHT31;58587;53.034;18.576;2022-12-05T17:19:21;1.79;94.72
70928;SHT31;58587;53.034;18.576;2022-12-05T17:22:06;1.77;94.79
70928;SHT31;58587;53.034;18.576;2022-12-05T17:24:34;1.81;94.79
70928;SHT31;58587;53.034;18.576;2022-12-05T17:27:10;1.78;94.76
70928;SHT31;58587;53.034;18.576;2022-12-05T17:29:36;1.75;94.85
70928;SHT31;58587;53.034;18.576;2022-12-05T17:32:02;1.81;94.92
70928;SHT31;58587;53.034;18.576;2022-12-05T17:34:28;1.82;94.88
70928;SHT31;58587;53.034;18.576;2022-12-05T17:36:53;1.85;94.81
70928;SHT31;58587;53.034;18.576;2022-12-05T17:39:19;1.81;94.92
70928;SHT31;58587;53.034;18.576;2022-12-05T17:41:51;1.79;94.91
70928;SHT31;58587;53.034;18.576;2022-12-05T17:44:23;1.81;94.89
70928;SHT31;58587;53.034;18.576;2022-12-05T17:46:54;1.79;94.90
70928;SHT31;58587;53.034;18.576;2022-12-05T17:49:26;1.78;95.01
70928;SHT31;58587;53.034;18.576;2022-12-05T17:51:51;1.79;94.92
70928;SHT31;58587;53.034;18.576;2022-12-05T17:54:18;1.78;95.05
70928;SHT31;58587;53.034;18.576;2022-12-05T17:56:54;1.81;95.08
70928;SHT31;58587;53.034;18.576;2022-12-05T17:59:20;1.81;95.08
70928;SHT31;58587;53.034;18.576;2022-12-05T18:01:45;1.78;95.16
70928;SHT31;58587;53.034;18.576;2022-12-05T18:04:10;1.77;95.31
70928;SHT31;58587;53.034;18.576;2022-12-05T18:06:36;1.78;95.15
70928;SHT31;58587;53.034;18.576;2022-12-05T18:09:03;1.82;95.08
70928;SHT31;58587;53.034;18.576;2022-12-05T18:11:29;1.81;95.11
70928;SHT31;58587;53.034;18.576;2022-12-05T18:13:54;1.83;95.02
70928;SHT31;58587;53.034;18.576;2022-12-05T18:16:20;1.83;95.00
70928;SHT31;58587;53.034;18.576;2022-12-05T18:18:46;1.81;95.05
70928;SHT31;58587;53.034;18.576;2022-12-05T18:21:11;1.81;95.23
70928;SHT31;58587;53.034;18.576;2022-12-05T18:23:38;1.81;95.19
70928;SHT31;58587;53.034;18.576;2022-12-05T18:26:05;1.81;95.17
70928;SHT31;58587;53.034;18.576;2022-12-05T18:28:33;1.85;95.07
70928;SHT31;58587;53.034;18.576;2022-12-05T18:31:07;1.82;95.13
70928;SHT31;58587;53.034;18.576;2022-12-05T18:33:32;1.85;95.16
70928;SHT31;58587;53.034;18.576;2022-12-05T18:36:03;1.83;95.18
70928;SHT31;58587;53.034;18.576;2022-12-05T18:38:29;1.85;95.21
70928;SHT31;58587;53.034;18.576;2022-12-05T18:41:02;1.83;95.09
70928;SHT31;58587;53.034;18.576;2022-12-05T18:43:28;1.88;95.06
70928;SHT31;58587;53.034;18.576;2022-12-05T18:45:55;1.86;95.14
70928;SHT31;58587;53.034;18.576;2022-12-05T18:48:20;1.85;95.20
70928;SHT31;58587;53.034;18.576;2022-12-05T18:50:45;1.85;95.31
70928;SHT31;58587;53.034;18.576;2022-12-05T18:53:11;1.86;95.36
70928;SHT31;58587;53.034;18.576;2022-12-05T18:55:36;1.83;95.46
70928;SHT31;58587;53.034;18.576;2022-12-05T18:58:01;1.82;95.38
70928;SHT31;58587;53.034;18.576;2022-12-05T19:00:27;1.85;95.43
70928;SHT31;58587;53.034;18.576;2022-12-05T19:02:53;1.83;95.42
70928;SHT31;58587;53.034;18.576;2022-12-05T19:05:18;1.85;95.40
70928;SHT31;58587;53.034;18.576;2022-12-05T19:07:43;1.85;95.47
70928;SHT31;58587;53.034;18.576;2022-12-05T19:10:10;1.86;95.41
70928;SHT31;58587;53.034;18.576;2022-12-05T19:12:35;1.86;95.45
70928;SHT31;58587;53.034;18.576;2022-12-05T19:15:01;1.88;95.48
70928;SHT31;58587;53.034;18.576;2022-12-05T19:17:26;1.88;95.44
70928;SHT31;58587;53.034;18.576;2022-12-05T19:19:51;1.88;95.48
70928;SHT31;58587;53.034;18.576;2022-12-05T19:22:18;1.89;95.52
70928;SHT31;58587;53.034;18.576;2022-12-05T19:24:43;1.88;95.54
70928;SHT31;58587;53.034;18.576;2022-12-05T19:27:09;1.86;95.51
70928;SHT31;58587;53.034;18.576;2022-12-05T19:29:34;1.88;95.54
70928;SHT31;58587;53.034;18.576;2022-12-05T19:31:59;1.89;95.59
70928;SHT31;58587;53.034;18.576;2022-12-05T19:34:25;1.91;95.59
70928;SHT31;58587;53.034;18.576;2022-12-05T19:37:11;1.91;95.55
70928;SHT31;58587;53.034;18.576;2022-12-05T19:39:36;1.92;95.59
70928;SHT31;58587;53.034;18.576;2022-12-05T19:42:02;1.89;95.71
70928;SHT31;58587;53.034;18.576;2022-12-05T19:44:27;1.92;95.71
70928;SHT31;58587;53.034;18.576;2022-12-05T19:46:52;1.91;95.59
70928;SHT31;58587;53.034;18.576;2022-12-05T19:49:19;1.92;95.61
70928;SHT31;58587;53.034;18.576;2022-12-05T19:51:47;1.92;95.63
70928;SHT31;58587;53.034;18.576;2022-12-05T19:54:13;1.95;95.61
70928;SHT31;58587;53.034;18.576;2022-12-05T19:56:38;1.95;95.58
70928;SHT31;58587;53.034;18.576;2022-12-05T19:59:05;1.92;95.68
70928;SHT31;58587;53.034;18.576;2022-12-05T20:01:33;1.94;95.70
70928;SHT31;58587;53.034;18.576;2022-12-05T20:04:04;1.94;95.66
70928;SHT31;58587;53.034;18.576;2022-12-05T20:06:33;1.94;95.70
70928;SHT31;58587;53.034;18.576;2022-12-05T20:08:59;1.92;95.75
70928;SHT31;58587;53.034;18.576;2022-12-05T20:11:24;1.98;95.73
70928;SHT31;58587;53.034;18.576;2022-12-05T20:13:52;1.98;95.86
70928;SHT31;58587;53.034;18.576;2022-12-05T20:16:19;1.95;95.80
70928;SHT31;58587;53.034;18.576;2022-12-05T20:18:45;1.99;95.67
70928;SHT31;58587;53.034;18.576;2022-12-05T20:21:12;2.02;95.66
70928;SHT31;58587;53.034;18.576;2022-12-05T20:23:38;2.01;95.71
70928;SHT31;58587;53.034;18.576;2022-12-05T20:26:06;2.01;95.71
70928;SHT31;58587;53.034;18.576;2022-12-05T20:28:31;2.01;95.77
70928;SHT31;58587;53.034;18.576;2022-12-05T20:31:09;2.02;95.68
70928;SHT31;58587;53.034;18.576;2022-12-05T20:33:36;2.03;95.71
70928;SHT31;58587;53.034;18.576;2022-12-05T20:36:03;2.03;95.70
70928;SHT31;58587;53.034;18.576;2022-12-05T20:38:29;2.02;95.67
70928;SHT31;58587;53.034;18.576;2022-12-05T20:41:02;2.02;95.75
70928;SHT31;58587;53.034;18.576;2022-12-05T20:43:28;2.05;95.71
70928;SHT31;58587;53.034;18.576;2022-12-05T20:45:54;2.06;95.74
70928;SHT31;58587;53.034;18.576;2022-12-05T20:48:20;2.06;95.79
70928;SHT31;58587;53.034;18.576;2022-12-05T20:50:51;2.08;95.78
70928;SHT31;58587;53.034;18.576;2022-12-05T20:53:16;2.08;95.80
70928;SHT31;58587;53.034;18.576;2022-12-05T20:55:42;2.11;95.70
70928;SHT31;58587;53.034;18.576;2022-12-05T20:58:07;2.08;95.76
70928;SHT31;58587;53.034;18.576;2022-12-05T21:00:32;2.12;95.77
70928;SHT31;58587;53.034;18.576;2022-12-05T21:02:57;2.11;95.81
70928;SHT31;58587;53.034;18.576;2022-12-05T21:05:23;2.11;95.78
70928;SHT31;58587;53.034;18.576;2022-12-05T21:07:48;2.13;95.89
70928;SHT31;58587;53.034;18.576;2022-12-05T21:10:13;2.12;95.88
70928;SHT31;58587;53.034;18.576;2022-12-05T21:12:39;2.13;95.86
70928;SHT31;58587;53.034;18.576;2022-12-05T21:15:04;2.15;95.89
70928;SHT31;58587;53.034;18.576;2022-12-05T21:17:30;2.18;96.00
70928;SHT31;58587;53.034;18.576;2022-12-05T21:19:56;2.12;96.06
70928;SHT31;58587;53.034;18.576;2022-12-05T21:22:21;2.13;96.01
70928;SHT31;58587;53.034;18.576;2022-12-05T21:24:46;2.15;96.03
70928;SHT31;58587;53.034;18.576;2022-12-05T21:27:12;2.12;96.13
70928;SHT31;58587;53.034;18.576;2022-12-05T21:29:37;2.15;96.19
70928;SHT31;58587;53.034;18.576;2022-12-05T21:32:02;2.18;96.20
70928;SHT31;58587;53.034;18.576;2022-12-05T21:34:28;2.18;96.22
70928;SHT31;58587;53.034;18.576;2022-12-05T21:36:53;2.22;96.21
70928;SHT31;58587;53.034;18.576;2022-12-05T21:39:19;2.19;96.13
70928;SHT31;58587;53.034;18.576;2022-12-05T21:41:45;2.25;96.10
70928;SHT31;58587;53.034;18.576;2022-12-05T21:44:10;2.26;96.11
70928;SHT31;58587;53.034;18.576;2022-12-05T21:46:35;2.26;96.07
70928;SHT31;58587;53.034;18.576;2022-12-05T21:49:01;2.28;96.15
70928;SHT31;58587;53.034;18.576;2022-12-05T21:51:26;2.28;96.00
70928;SHT31;58587;53.034;18.576;2022-12-05T21:53:51;2.30;95.96
70928;SHT31;58587;53.034;18.576;2022-12-05T21:56:21;2.28;96.02
70928;SHT31;58587;53.034;18.576;2022-12-05T21:58:47;2.26;96.13
70928;SHT31;58587;53.034;18.576;2022-12-05T22:01:18;2.29;96.13
70928;SHT31;58587;53.034;18.576;2022-12-05T22:03:44;2.32;96.01
70928;SHT31;58587;53.034;18.576;2022-12-05T22:06:12;2.32;95.99
70928;SHT31;58587;53.034;18.576;2022-12-05T22:08:39;2.32;95.90
70928;SHT31;58587;53.034;18.576;2022-12-05T22:11:07;2.37;95.96
70928;SHT31;58587;53.034;18.576;2022-12-05T22:13:33;2.36;96.08
70928;SHT31;58587;53.034;18.576;2022-12-05T22:15:59;2.37;95.90
70928;SHT31;58587;53.034;18.576;2022-12-05T22:18:25;2.36;95.82
70928;SHT31;58587;53.034;18.576;2022-12-05T22:20:58;2.34;95.97
70928;SHT31;58587;53.034;18.576;2022-12-05T22:23:24;2.36;95.93
70928;SHT31;58587;53.034;18.576;2022-12-05T22:26:04;2.37;95.89
70928;SHT31;58587;53.034;18.576;2022-12-05T22:28:30;2.36;96.01
70928;SHT31;58587;53.034;18.576;2022-12-05T22:30:59;2.36;95.97
70928;SHT31;58587;53.034;18.576;2022-12-05T22:33:25;2.34;96.09
70928;SHT31;58587;53.034;18.576;2022-12-05T22:35:52;2.37;96.10
70928;SHT31;58587;53.034;18.576;2022-12-05T22:38:18;2.37;95.98
70928;SHT31;58587;53.034;18.576;2022-12-05T22:40:44;2.37;96.07
70928;SHT31;58587;53.034;18.576;2022-12-05T22:43:09;2.34;96.26
70928;SHT31;58587;53.034;18.576;2022-12-05T22:45:35;2.37;96.09
70928;SHT31;58587;53.034;18.576;2022-12-05T22:48:00;2.37;96.01
70928;SHT31;58587;53.034;18.576;2022-12-05T22:50:26;2.37;96.16
70928;SHT31;58587;53.034;18.576;2022-12-05T22:52:51;2.40;96.06
